Saint Regis, Montana
Current Conditions -  °F | °C
As of 12:53 PM on Friday 19 Dec 2014 (Local Time) from KMLP Reporting Station
Moderate Snow Moderate Snow  
Wind Chill: -4°   Ceiling: 300
Heat Index: -1°   Visibility: 0.25mi
Dew Point: -2°   Wind: 6mph
Humidity: 89%   Direction: NA
Pressure: 29.83"   Gusts: NA
Location:  47.3°N, 115.1°W
Report Text: KMLP 191953Z AUTO VRB05KT 1/4SM SN FZFG VV003 M01/M02 A2983 RMK AO2 SLP076 P0007 T10061022
Loading
Personal Weather Stations






























Interactive Weather Map New forecast layout! Learn more

10-Day Weather Forecast

Advertisements
Track Severe Weather on mobile